createdAt,value
2023-04-24T00:01:21.977Z,81.55
2023-04-24T00:03:45.784Z,82.68
2023-04-24T00:06:09.960Z,81.20
2023-04-24T00:08:35.129Z,81.57
2023-04-24T00:10:58.861Z,82.41
2023-04-24T00:13:22.465Z,81.77
2023-04-24T00:15:46.074Z,82.21
2023-04-24T00:18:09.673Z,81.18
2023-04-24T00:20:34.470Z,81.36
2023-04-24T00:22:58.246Z,82.29
2023-04-24T00:25:23.515Z,82.15
2023-04-24T00:27:47.146Z,80.45
2023-04-24T00:30:11.865Z,81.56
2023-04-24T00:32:35.540Z,81.50
2023-04-24T00:34:59.153Z,80.58
2023-04-24T00:37:22.743Z,81.78
2023-04-24T00:39:46.636Z,81.21
2023-04-24T00:42:11.912Z,83.01
2023-04-24T00:44:36.357Z,80.95
2023-04-24T00:47:01.442Z,81.97
2023-04-24T00:49:25.243Z,83.84
2023-04-24T00:51:50.329Z,83.10
2023-04-24T00:54:14.016Z,83.50
2023-04-24T00:56:37.852Z,82.40
2023-04-24T00:59:03.023Z,83.53
2023-04-24T01:01:27.019Z,82.69
2023-04-24T01:03:53.764Z,82.63
2023-04-24T01:06:18.248Z,82.17
2023-04-24T01:08:43.761Z,83.94
2023-04-24T01:11:07.626Z,84.76
2023-04-24T01:13:31.461Z,84.26
2023-04-24T01:15:56.432Z,86.91
2023-04-24T01:18:20.109Z,87.28
2023-04-24T01:20:46.138Z,85.91
2023-04-24T01:23:11.554Z,84.65
2023-04-24T01:25:35.660Z,86.37
2023-04-24T01:27:59.480Z,87.54
2023-04-24T01:30:23.104Z,87.36
2023-04-24T01:32:47.900Z,89.49
2023-04-24T01:35:11.961Z,91.35
2023-04-24T01:37:38.170Z,89.55
2023-04-24T01:40:04.654Z,91.01
2023-04-24T01:42:28.697Z,92.75
2023-04-24T01:44:52.992Z,91.28
2023-04-24T01:47:16.745Z,93.29
2023-04-24T01:49:41.681Z,91.32
2023-04-24T01:52:05.715Z,90.92
2023-04-24T01:54:29.330Z,94.14
2023-04-24T01:56:54.554Z,95.73
2023-04-24T01:59:19.874Z,94.92
2023-04-24T02:01:43.447Z,94.46
2023-04-24T02:04:08.989Z,96.05
2023-04-24T02:06:33.334Z,94.66
2023-04-24T02:08:57.963Z,93.67
2023-04-24T02:11:21.822Z,89.97
2023-04-24T02:13:46.890Z,91.83
2023-04-24T02:16:10.617Z,92.35
2023-04-24T02:18:34.206Z,93.13
2023-04-24T02:20:57.801Z,92.31
2023-04-24T02:23:21.530Z,90.52
2023-04-24T02:25:45.228Z,90.59
2023-04-24T02:28:08.825Z,90.43
2023-04-24T02:30:33.794Z,89.88
2023-04-24T02:32:57.400Z,89.03
2023-04-24T02:35:21.125Z,88.64
2023-04-24T02:37:44.690Z,90.59
2023-04-24T02:40:11.482Z,92.96
2023-04-24T02:42:35.027Z,91.77
2023-04-24T02:44:58.614Z,90.56
2023-04-24T02:47:23.600Z,91.98
2023-04-24T02:49:47.231Z,89.97
2023-04-24T02:52:11.457Z,88.83
2023-04-24T02:54:35.115Z,86.79
2023-04-24T02:56:58.935Z,89.06
2023-04-24T02:59:22.671Z,88.41
2023-04-24T03:01:46.325Z,87.15
2023-04-24T03:04:14.630Z,90.19
2023-04-24T03:06:38.254Z,91.63
2023-04-24T03:09:01.877Z,90.87
2023-04-24T03:11:25.481Z,89.94
2023-04-24T03:13:49.230Z,90.63
2023-04-24T03:16:12.859Z,88.39
2023-04-24T03:18:36.502Z,88.64
2023-04-24T03:21:04.532Z,88.42
2023-04-24T03:23:28.690Z,90.16
2023-04-24T03:25:52.497Z,90.04
2023-04-24T03:28:17.218Z,90.57
2023-04-24T03:30:45.678Z,89.07
2023-04-24T03:33:10.850Z,91.18
2023-04-24T03:35:40.811Z,90.10
2023-04-24T03:38:08.616Z,91.18
2023-04-24T03:40:41.393Z,92.70
2023-04-24T03:43:19.207Z,91.85
2023-04-24T03:45:43.567Z,91.84
2023-04-24T03:48:08.672Z,92.78
2023-04-24T03:50:32.438Z,91.52
2023-04-24T03:52:56.382Z,93.66
2023-04-24T03:55:32.695Z,92.16
2023-04-24T03:57:56.408Z,92.91
2023-04-24T04:00:20.498Z,91.33
2023-04-24T04:02:50.244Z,91.73
2023-04-24T04:05:13.944Z,92.63
2023-04-24T04:07:38.795Z,92.08
2023-04-24T04:10:02.544Z,90.92
2023-04-24T04:12:27.809Z,91.34
2023-04-24T04:14:51.427Z,90.79
2023-04-24T04:17:15.443Z,91.39
2023-04-24T04:19:39.680Z,91.83
2023-04-24T04:22:03.546Z,91.45
2023-04-24T04:24:39.020Z,92.27
2023-04-24T04:27:03.334Z,92.26
2023-04-24T04:29:33.774Z,91.93
2023-04-24T04:31:58.708Z,93.41
2023-04-24T04:34:23.622Z,91.78
2023-04-24T04:36:48.417Z,92.10
2023-04-24T04:39:29.235Z,93.05
2023-04-24T04:42:01.647Z,92.06
2023-04-24T04:44:33.768Z,90.84
2023-04-24T04:46:58.365Z,90.28
2023-04-24T04:49:29.598Z,89.65
2023-04-24T04:51:54.046Z,90.41
2023-04-24T04:54:18.675Z,89.76
2023-04-24T04:56:42.904Z,87.87
2023-04-24T04:59:07.463Z,89.48
2023-04-24T05:01:34.187Z,90.21
2023-04-24T05:03:58.033Z,89.26
2023-04-24T05:06:24.247Z,90.72
2023-04-24T05:08:49.775Z,91.70
2023-04-24T05:11:30.664Z,89.07
2023-04-24T05:13:55.485Z,88.76
2023-04-24T05:16:26.937Z,89.88
2023-04-24T05:18:53.657Z,89.57
2023-04-24T05:21:22.305Z,89.57
2023-04-24T05:26:18.827Z,89.74
2023-04-24T05:28:42.457Z,89.72
2023-04-24T05:31:09.056Z,89.27
2023-04-24T05:33:33.259Z,89.37
2023-04-24T05:36:01.252Z,88.37
2023-04-24T05:38:25.380Z,88.20
2023-04-24T05:40:48.978Z,88.73
2023-04-24T05:43:12.582Z,87.89
2023-04-24T05:45:37.087Z,86.48
2023-04-24T05:48:00.737Z,86.68
2023-04-24T05:50:24.528Z,86.68
2023-04-24T05:52:49.705Z,86.41
2023-04-24T05:55:22.909Z,86.70
2023-04-24T05:57:46.807Z,84.93
2023-04-24T06:00:13.115Z,83.07
2023-04-24T06:02:47.503Z,83.20
2023-04-24T06:05:11.601Z,81.90
2023-04-24T06:07:35.265Z,79.95
2023-04-24T06:10:03.261Z,79.06
2023-04-24T06:12:31.650Z,76.87
2023-04-24T06:15:00.137Z,77.79
2023-04-24T06:17:43.238Z,76.17
2023-04-24T06:20:09.306Z,74.85
2023-04-24T06:22:32.876Z,74.48
2023-04-24T06:24:56.470Z,74.28
2023-04-24T06:27:23.237Z,72.38
2023-04-24T06:29:46.835Z,68.67
2023-04-24T06:32:10.442Z,65.40
2023-04-24T06:34:35.197Z,67.91
2023-04-24T06:36:59.106Z,66.38
2023-04-24T06:39:22.712Z,61.31
2023-04-24T06:41:46.241Z,64.22
2023-04-24T06:44:18.438Z,62.54
2023-04-24T06:46:42.222Z,59.48
2023-04-24T06:49:05.801Z,58.96
2023-04-24T06:51:29.797Z,57.89
2023-04-24T06:53:54.790Z,56.71
2023-04-24T06:56:18.495Z,56.49
2023-04-24T06:58:42.066Z,55.99
2023-04-24T07:01:07.329Z,55.57
2023-04-24T07:03:32.366Z,52.44
2023-04-24T07:05:58.888Z,54.09
2023-04-24T07:08:23.142Z,53.64
2023-04-24T07:10:47.100Z,54.52
2023-04-24T07:13:10.762Z,53.72
2023-04-24T07:15:35.040Z,52.41
2023-04-24T07:18:00.023Z,51.68
2023-04-24T07:20:24.041Z,52.43
2023-04-24T07:22:47.568Z,52.54
2023-04-24T07:25:11.887Z,53.04
2023-04-24T07:27:36.020Z,51.96
2023-04-24T07:29:59.650Z,53.29
2023-04-24T07:32:23.228Z,50.22
2023-04-24T07:34:48.190Z,49.83
2023-04-24T07:37:11.819Z,50.06
2023-04-24T07:39:35.516Z,49.60
2023-04-24T07:42:00.128Z,49.99
2023-04-24T07:44:23.813Z,51.16
2023-04-24T07:46:47.470Z,50.14
2023-04-24T07:49:13.520Z,48.60
2023-04-24T07:51:40.193Z,52.18
2023-04-24T07:54:03.807Z,50.42
2023-04-24T07:56:28.092Z,50.79
2023-04-24T07:58:51.916Z,52.16
2023-04-24T08:01:15.438Z,51.67
2023-04-24T08:03:39.263Z,50.27
2023-04-24T08:06:02.976Z,48.73
2023-04-24T08:08:28.218Z,49.83
2023-04-24T08:10:52.096Z,51.19
2023-04-24T08:13:15.699Z,50.22
2023-04-24T08:15:39.270Z,49.82
2023-04-24T08:18:03.038Z,50.05
2023-04-24T08:20:26.824Z,49.10
2023-04-24T08:22:50.444Z,48.58
2023-04-24T08:25:15.868Z,47.49
2023-04-24T08:27:40.000Z,46.52
2023-04-24T08:30:03.669Z,48.67
2023-04-24T08:32:28.928Z,50.67
2023-04-24T08:34:53.770Z,48.63
2023-04-24T08:37:17.511Z,46.75
2023-04-24T08:39:41.156Z,47.85
2023-04-24T08:42:09.280Z,48.62
2023-04-24T08:44:34.731Z,48.87
2023-04-24T08:46:58.786Z,49.07
2023-04-24T08:49:22.902Z,50.08
2023-04-24T08:51:48.093Z,48.84
2023-04-24T08:54:11.659Z,48.66
2023-04-24T08:56:38.782Z,49.37
2023-04-24T08:59:04.011Z,45.86
2023-04-24T09:01:29.949Z,50.25
2023-04-24T09:03:55.933Z,49.22
2023-04-24T09:06:21.934Z,50.14
2023-04-24T09:08:47.926Z,49.73
2023-04-24T09:11:12.450Z,48.88
2023-04-24T09:13:36.813Z,48.45
2023-04-24T09:16:02.346Z,49.67
2023-04-24T09:18:26.178Z,48.55
2023-04-24T09:21:04.068Z,49.47
2023-04-24T09:23:30.573Z,48.29
2023-04-24T09:25:58.073Z,50.50
2023-04-24T09:28:21.720Z,49.41
2023-04-24T09:30:45.275Z,50.36
2023-04-24T09:33:17.824Z,51.43
2023-04-24T09:35:45.083Z,47.44
2023-04-24T09:38:08.960Z,48.61
2023-04-24T09:40:32.694Z,50.03
2023-04-24T09:42:58.862Z,48.13
2023-04-24T09:45:23.298Z,47.07
2023-04-24T09:47:46.937Z,49.77
2023-04-24T09:50:18.091Z,49.78
2023-04-24T09:52:44.774Z,49.38
2023-04-24T09:55:14.581Z,50.35
2023-04-24T09:57:38.177Z,50.00
2023-04-24T10:00:01.750Z,52.48
2023-04-24T10:02:35.414Z,51.47
2023-04-24T10:05:01.263Z,52.12
2023-04-24T10:07:28.542Z,51.35
2023-04-24T10:09:52.276Z,51.92
2023-04-24T10:12:17.202Z,51.15
2023-04-24T10:14:42.874Z,51.99
2023-04-24T10:17:08.697Z,52.35
2023-04-24T10:19:33.022Z,51.53
2023-04-24T10:21:58.496Z,51.57
2023-04-24T10:24:23.518Z,50.14
2023-04-24T10:26:49.340Z,51.00
2023-04-24T10:29:16.506Z,51.11
2023-04-24T10:31:41.213Z,49.89
2023-04-24T10:34:05.666Z,50.40
2023-04-24T10:36:33.319Z,50.78
2023-04-24T10:39:00.094Z,51.39
2023-04-24T10:41:28.894Z,50.76
2023-04-24T10:44:07.817Z,50.99
2023-04-24T10:46:32.919Z,51.86
2023-04-24T10:48:57.323Z,52.50
2023-04-24T10:51:24.117Z,51.39
2023-04-24T10:53:47.759Z,49.52
2023-04-24T10:56:13.286Z,51.06
2023-04-24T10:58:46.090Z,52.33
2023-04-24T11:01:10.304Z,51.56
2023-04-24T11:03:37.312Z,52.05
2023-04-24T11:06:03.821Z,52.37
2023-04-24T11:08:34.047Z,54.77
2023-04-24T11:11:05.559Z,51.74
2023-04-24T11:14:05.262Z,53.18
2023-04-24T11:16:33.788Z,52.00
2023-04-24T11:19:04.569Z,53.02
2023-04-24T11:21:29.525Z,54.80
2023-04-24T11:23:53.198Z,56.76
2023-04-24T11:26:21.807Z,53.72
2023-04-24T11:28:49.936Z,55.37
2023-04-24T11:31:39.625Z,53.07
2023-04-24T11:34:10.135Z,52.88
2023-04-24T11:36:34.670Z,51.23
2023-04-24T11:38:59.125Z,53.75
2023-04-24T11:41:23.339Z,52.38
2023-04-24T11:43:47.543Z,53.83
2023-04-24T11:46:12.015Z,55.20
2023-04-24T11:48:41.092Z,50.70
2023-04-24T11:51:04.970Z,49.72
2023-04-24T11:53:28.481Z,49.67
2023-04-24T11:55:52.117Z,50.84
2023-04-24T11:58:15.641Z,52.12
2023-04-24T12:00:39.419Z,50.99
2023-04-24T12:03:08.815Z,48.60
2023-04-24T12:05:34.362Z,48.29
2023-04-24T12:07:58.001Z,50.44
2023-04-24T12:10:23.592Z,48.06
2023-04-24T12:12:48.525Z,49.31
2023-04-24T12:15:13.534Z,47.82
2023-04-24T12:17:38.644Z,48.82
2023-04-24T12:20:05.195Z,50.51
2023-04-24T12:22:30.415Z,51.05
2023-04-24T12:25:02.889Z,51.46
2023-04-24T12:27:26.827Z,50.61
2023-04-24T12:29:55.614Z,52.11
2023-04-24T12:32:19.368Z,50.44
2023-04-24T12:34:45.893Z,51.00
2023-04-24T12:37:13.165Z,53.42
2023-04-24T12:39:38.087Z,53.33
2023-04-24T12:42:02.383Z,52.48
2023-04-24T12:44:33.211Z,48.98
2023-04-24T12:46:56.953Z,46.28
2023-04-24T12:49:20.668Z,45.80
2023-04-24T12:51:44.270Z,45.69
2023-04-24T12:54:08.339Z,46.22
2023-04-24T12:56:33.370Z,46.98
2023-04-24T12:58:56.955Z,46.42
2023-04-24T13:01:20.621Z,48.54
2023-04-24T13:03:44.934Z,47.19
2023-04-24T13:06:08.877Z,47.24
2023-04-24T13:08:32.426Z,48.62
2023-04-24T13:10:56.061Z,48.33
2023-04-24T13:13:20.976Z,47.50
2023-04-24T13:15:44.533Z,48.82
2023-04-24T13:18:08.072Z,49.41
2023-04-24T13:20:31.950Z,46.87
2023-04-24T13:22:55.782Z,47.53
2023-04-24T13:25:21.423Z,51.30
2023-04-24T13:27:44.941Z,53.14
2023-04-24T13:30:11.910Z,53.16
2023-04-24T13:32:36.459Z,52.41
2023-04-24T13:35:00.377Z,48.78
2023-04-24T13:37:24.305Z,49.81
2023-04-24T13:39:47.885Z,50.35
2023-04-24T13:42:11.826Z,49.51
2023-04-24T13:44:35.575Z,50.04
2023-04-24T13:47:01.187Z,47.58
2023-04-24T13:49:27.060Z,45.58
2023-04-24T13:51:50.765Z,45.17
2023-04-24T13:54:14.496Z,44.76
2023-04-24T13:56:38.216Z,45.17
2023-04-24T13:59:02.006Z,44.14
2023-04-24T14:01:26.064Z,45.52
2023-04-24T14:03:51.797Z,44.51
2023-04-24T14:06:15.586Z,43.91
2023-04-24T14:08:39.211Z,43.53
2023-04-24T14:11:04.489Z,42.38
2023-04-24T14:13:28.739Z,43.21
2023-04-24T14:15:53.655Z,43.49
2023-04-24T14:18:17.448Z,42.90
2023-04-24T14:20:42.426Z,41.00
2023-04-24T14:23:06.556Z,40.99
2023-04-24T14:25:30.112Z,41.00
2023-04-24T14:27:54.052Z,38.12
2023-04-24T14:30:17.953Z,40.51
2023-04-24T14:32:41.911Z,38.70
2023-04-24T14:35:06.592Z,37.29
2023-04-24T14:37:31.863Z,39.06
2023-04-24T14:40:11.032Z,38.17
2023-04-24T14:42:35.291Z,39.07
2023-04-24T14:44:58.847Z,39.74
2023-04-24T14:47:23.270Z,37.58
2023-04-24T14:49:48.354Z,38.19
2023-04-24T14:52:12.086Z,37.78
2023-04-24T14:54:37.069Z,38.26
2023-04-24T14:57:02.297Z,37.84
2023-04-24T14:59:25.957Z,38.34
2023-04-24T15:01:50.057Z,36.99
2023-04-24T15:04:14.490Z,39.62
2023-04-24T15:06:38.309Z,39.03
2023-04-24T15:09:02.035Z,38.27
2023-04-24T15:11:27.122Z,39.94
2023-04-24T15:13:50.927Z,39.51
2023-04-24T15:16:14.685Z,39.35
2023-04-24T15:18:38.297Z,39.37
2023-04-24T15:21:01.977Z,39.86
2023-04-24T15:23:25.536Z,39.95
2023-04-24T15:25:49.748Z,39.43
2023-04-24T15:28:14.819Z,39.93
2023-04-24T15:30:38.542Z,38.63
2023-04-24T15:33:02.798Z,39.77
2023-04-24T15:35:28.113Z,39.45
2023-04-24T15:37:51.741Z,40.66
2023-04-24T15:40:16.782Z,40.58
2023-04-24T15:42:41.011Z,39.93
2023-04-24T15:45:06.681Z,39.77
2023-04-24T15:47:30.663Z,40.06
2023-04-24T15:49:54.800Z,40.50
2023-04-24T15:52:18.519Z,40.60
2023-04-24T15:54:42.265Z,39.72
2023-04-24T15:57:05.877Z,40.87
2023-04-24T15:59:31.366Z,40.34
2023-04-24T16:01:56.875Z,40.04
2023-04-24T16:04:20.780Z,40.98
2023-04-24T16:06:44.418Z,41.57
2023-04-24T16:09:08.625Z,39.72
2023-04-24T16:11:32.806Z,40.02
2023-04-24T16:13:56.476Z,41.15
2023-04-24T16:16:20.076Z,39.78
2023-04-24T16:18:45.139Z,40.67
2023-04-24T16:21:09.404Z,40.42
2023-04-24T16:23:33.036Z,40.12
2023-04-24T16:25:56.582Z,41.50
2023-04-24T16:28:20.534Z,40.78
2023-04-24T16:30:44.177Z,42.72
2023-04-24T16:33:09.226Z,43.84
2023-04-24T16:35:34.307Z,46.08
2023-04-24T16:37:57.940Z,46.65
2023-04-24T16:40:22.066Z,48.01
2023-04-24T16:42:45.670Z,48.27
2023-04-24T16:45:11.003Z,50.06
2023-04-24T16:47:34.784Z,50.01
2023-04-24T16:49:58.484Z,51.01
2023-04-24T16:52:23.505Z,50.89
2023-04-24T16:54:47.029Z,52.67
2023-04-24T16:57:10.795Z,51.89
2023-04-24T16:59:35.118Z,52.04
2023-04-24T17:01:58.775Z,52.08
2023-04-24T17:04:22.469Z,53.63
2023-04-24T17:06:46.182Z,52.61
2023-04-24T17:09:13.045Z,53.11
2023-04-24T17:11:37.164Z,53.78
2023-04-24T17:14:00.820Z,54.59
2023-04-24T17:16:24.814Z,55.26
2023-04-24T17:18:48.611Z,56.37
2023-04-24T17:21:12.520Z,55.72
2023-04-24T17:23:37.416Z,55.27
2023-04-24T17:26:03.883Z,55.92
2023-04-24T17:28:29.615Z,59.27
2023-04-24T17:30:55.521Z,62.96
2023-04-24T17:33:19.118Z,62.87
2023-04-24T17:35:42.814Z,63.85
2023-04-24T17:38:06.372Z,65.57
2023-04-24T17:40:30.162Z,64.00
2023-04-24T17:42:55.065Z,63.52
2023-04-24T17:45:18.692Z,63.35
2023-04-24T17:47:42.434Z,61.98
2023-04-24T17:50:07.246Z,63.16
2023-04-24T17:52:30.999Z,62.51
2023-04-24T17:54:54.648Z,62.78
2023-04-24T17:57:18.220Z,62.09
2023-04-24T17:59:43.345Z,61.20
2023-04-24T18:02:06.964Z,60.96
2023-04-24T18:04:30.707Z,60.79
2023-04-24T18:06:54.339Z,61.01
2023-04-24T18:09:20.753Z,60.50
2023-04-24T18:11:44.422Z,60.12
2023-04-24T18:14:08.125Z,60.10
2023-04-24T18:16:33.065Z,60.46
2023-04-24T18:18:56.758Z,59.66
2023-04-24T18:21:20.757Z,59.31
2023-04-24T18:23:44.804Z,57.77
2023-04-24T18:26:08.420Z,58.95
2023-04-24T18:28:34.711Z,58.81
2023-04-24T18:30:58.489Z,59.30
2023-04-24T18:33:23.518Z,59.75
2023-04-24T18:35:47.071Z,60.14
2023-04-24T18:38:10.679Z,60.18
2023-04-24T18:40:34.205Z,59.58
2023-04-24T18:42:58.242Z,58.83
2023-04-24T18:45:21.972Z,59.18
2023-04-24T18:47:45.760Z,59.78
2023-04-24T18:50:12.363Z,58.89
2023-04-24T18:52:36.100Z,59.85
2023-04-24T18:55:00.288Z,60.73
2023-04-24T18:57:23.923Z,60.93
2023-04-24T18:59:47.541Z,61.32
2023-04-24T19:02:11.416Z,60.84
2023-04-24T19:04:35.157Z,61.42
2023-04-24T19:07:00.177Z,62.42
2023-04-24T19:09:23.775Z,63.07
2023-04-24T19:11:47.706Z,63.48
2023-04-24T19:14:11.317Z,63.59
2023-04-24T19:16:35.032Z,63.37
2023-04-24T19:18:58.598Z,62.82
2023-04-24T19:21:22.980Z,63.50
2023-04-24T19:23:50.418Z,63.40
2023-04-24T19:26:14.521Z,63.73
2023-04-24T19:28:39.203Z,63.21
2023-04-24T19:31:03.521Z,63.28
2023-04-24T19:33:27.075Z,62.73
2023-04-24T19:35:50.769Z,63.56
2023-04-24T19:38:14.350Z,63.09
2023-04-24T19:40:39.455Z,64.54
2023-04-24T19:43:03.007Z,64.51
2023-04-24T19:45:26.630Z,65.03
2023-04-24T19:47:50.360Z,64.52
2023-04-24T19:50:15.004Z,64.98
2023-04-24T19:52:38.722Z,63.91
2023-04-24T19:55:02.539Z,65.02
2023-04-24T19:57:27.465Z,64.30
2023-04-24T19:59:51.090Z,64.02
2023-04-24T20:02:14.824Z,64.29
2023-04-24T20:04:38.850Z,64.54
2023-04-24T20:07:02.610Z,64.54
2023-04-24T20:09:26.243Z,64.67
2023-04-24T20:11:51.299Z,65.50
2023-04-24T20:14:16.419Z,65.49
2023-04-24T20:16:40.580Z,65.36
2023-04-24T20:19:04.256Z,66.82
2023-04-24T20:21:27.970Z,66.32
2023-04-24T20:23:52.947Z,66.18
2023-04-24T20:26:16.540Z,67.25
2023-04-24T20:28:40.189Z,67.56
2023-04-24T20:31:05.515Z,66.96
2023-04-24T20:33:30.467Z,67.26
2023-04-24T20:35:54.012Z,67.31
2023-04-24T20:38:18.617Z,67.30
2023-04-24T20:40:56.128Z,66.44
2023-04-24T20:43:23.028Z,67.50
2023-04-24T20:45:46.966Z,68.47
2023-04-24T20:48:12.862Z,67.54
2023-04-24T20:50:41.311Z,67.04
2023-04-24T20:53:05.866Z,67.36
2023-04-24T20:55:29.476Z,68.10
2023-04-24T20:57:53.649Z,68.55
2023-04-24T21:00:17.922Z,68.16
2023-04-24T21:02:41.600Z,68.70
2023-04-24T21:05:08.063Z,67.81
2023-04-24T21:07:31.862Z,68.02
2023-04-24T21:09:55.499Z,69.12
2023-04-24T21:12:19.232Z,68.67
2023-04-24T21:14:42.884Z,69.12
2023-04-24T21:17:06.562Z,68.39
2023-04-24T21:19:30.145Z,69.12
2023-04-24T21:21:55.133Z,68.95
2023-04-24T21:24:18.628Z,69.47
2023-04-24T21:26:42.349Z,69.48
2023-04-24T21:29:05.993Z,68.85
2023-04-24T21:31:29.678Z,69.11
2023-04-24T21:33:53.191Z,68.39
2023-04-24T21:36:16.905Z,70.82
2023-04-24T21:38:41.883Z,70.33
2023-04-24T21:41:05.593Z,70.17
2023-04-24T21:43:43.497Z,70.56
2023-04-24T21:46:08.564Z,71.26
2023-04-24T21:48:32.144Z,71.49
2023-04-24T21:50:55.825Z,71.30
2023-04-24T21:53:19.339Z,71.01
2023-04-24T21:55:44.380Z,70.81
2023-04-24T21:58:07.924Z,71.53
2023-04-24T22:00:31.602Z,71.48
2023-04-24T22:02:55.230Z,70.59
2023-04-24T22:05:20.341Z,72.18
2023-04-24T22:07:47.135Z,72.47
2023-04-24T22:10:13.932Z,73.42
2023-04-24T22:12:39.259Z,73.05
2023-04-24T22:15:04.144Z,73.24
2023-04-24T22:17:28.003Z,72.27
2023-04-24T22:19:51.716Z,72.06
2023-04-24T22:22:15.382Z,70.57
2023-04-24T22:24:39.069Z,72.63
2023-04-24T22:27:03.000Z,72.52
2023-04-24T22:29:28.067Z,72.18
2023-04-24T22:31:51.782Z,72.78
2023-04-24T22:34:17.074Z,72.73
2023-04-24T22:36:40.867Z,72.89
2023-04-24T22:39:05.454Z,74.04
2023-04-24T22:41:28.994Z,73.64
2023-04-24T22:43:52.734Z,72.34
2023-04-24T22:46:18.409Z,73.64
2023-04-24T22:48:42.042Z,72.88
2023-04-24T22:51:06.613Z,72.64
2023-04-24T22:53:30.316Z,72.34
2023-04-24T22:55:53.905Z,71.43
2023-04-24T22:58:17.593Z,70.99
2023-04-24T23:00:41.200Z,72.24
2023-04-24T23:03:06.833Z,73.45
2023-04-24T23:05:31.128Z,72.76
2023-04-24T23:07:54.928Z,73.11
2023-04-24T23:10:18.585Z,74.84
2023-04-24T23:12:42.215Z,73.30
2023-04-24T23:15:07.227Z,72.92
2023-04-24T23:17:30.857Z,73.79
2023-04-24T23:19:55.923Z,73.38
2023-04-24T23:22:19.653Z,73.96
2023-04-24T23:24:43.239Z,74.06
2023-04-24T23:27:06.983Z,72.45
2023-04-24T23:29:30.629Z,72.71
2023-04-24T23:31:54.660Z,72.95
2023-04-24T23:34:20.118Z,72.63
2023-04-24T23:36:45.170Z,72.36
2023-04-24T23:39:08.764Z,71.69
2023-04-24T23:41:32.927Z,73.08
2023-04-24T23:43:56.455Z,72.01
2023-04-24T23:46:20.193Z,71.67
2023-04-24T23:48:43.760Z,72.11
2023-04-24T23:51:07.690Z,71.51
2023-04-24T23:53:32.611Z,71.37
2023-04-24T23:55:56.426Z,71.02
2023-04-24T23:58:19.970Z,70.94
